createdAt,value
2023-02-16T00:00:21.883Z,7.00
2023-02-16T00:02:49.294Z,7.00
2023-02-16T00:05:34.658Z,7.00
2023-02-16T00:08:02.166Z,7.00
2023-02-16T00:10:36.697Z,6.90
2023-02-16T00:13:47.195Z,6.90
2023-02-16T00:16:18.549Z,6.90
2023-02-16T00:18:47.316Z,6.90
2023-02-16T00:21:15.560Z,6.90
2023-02-16T00:23:43.080Z,6.90
2023-02-16T00:26:20.488Z,6.90
2023-02-16T00:28:54.509Z,6.90
2023-02-16T00:31:27.744Z,6.90
2023-02-16T00:33:59.847Z,6.80
2023-02-16T00:36:27.124Z,6.80
2023-02-16T00:38:54.058Z,6.80
2023-02-16T00:41:42.810Z,6.80
2023-02-16T00:44:29.434Z,6.80
2023-02-16T00:46:56.799Z,6.80
2023-02-16T00:49:23.658Z,6.70
2023-02-16T00:51:50.907Z,6.70
2023-02-16T00:54:17.877Z,6.70
2023-02-16T00:56:46.498Z,6.70
2023-02-16T00:59:21.934Z,6.70
2023-02-16T01:01:49.998Z,6.70
2023-02-16T01:04:24.174Z,6.60
2023-02-16T01:07:10.059Z,6.60
2023-02-16T01:09:55.582Z,6.60
2023-02-16T01:12:22.819Z,6.50
2023-02-16T01:14:54.133Z,6.50
2023-02-16T01:17:24.637Z,6.50
2023-02-16T01:19:54.130Z,6.50
2023-02-16T01:22:21.099Z,6.50
2023-02-16T01:24:48.093Z,6.40
2023-02-16T01:27:14.968Z,6.40
2023-02-16T01:29:44.637Z,6.40
2023-02-16T01:32:13.049Z,6.30
2023-02-16T01:34:40.093Z,6.30
2023-02-16T01:37:14.964Z,6.30
2023-02-16T01:39:44.054Z,6.20
2023-02-16T01:42:51.922Z,6.20
2023-02-16T01:45:34.475Z,6.20
2023-02-16T01:48:12.590Z,6.10
2023-02-16T01:50:42.794Z,6.10
2023-02-16T01:53:26.702Z,6.10
2023-02-16T01:56:00.608Z,6.00
2023-02-16T01:58:54.312Z,6.00
2023-02-16T02:01:37.664Z,6.00
2023-02-16T02:04:45.446Z,6.00
2023-02-16T02:07:35.074Z,6.00
2023-02-16T02:10:21.556Z,6.00
2023-02-16T02:13:08.925Z,6.00
2023-02-16T02:15:38.123Z,6.00
2023-02-16T02:18:05.533Z,5.90
2023-02-16T02:21:44.362Z,5.90
2023-02-16T02:24:38.641Z,5.90
2023-02-16T02:27:31.264Z,5.90
2023-02-16T02:30:04.182Z,5.80
2023-02-16T02:33:18.605Z,5.80
2023-02-16T02:36:15.177Z,5.80
2023-02-16T02:39:13.074Z,5.80
2023-02-16T02:42:04.329Z,5.80
2023-02-16T02:44:55.341Z,5.80
2023-02-16T02:47:22.785Z,5.80
2023-02-16T02:49:54.940Z,5.70
2023-02-16T02:52:23.122Z,5.70
2023-02-16T02:55:09.589Z,5.70
2023-02-16T02:58:06.103Z,5.60
2023-02-16T03:00:46.774Z,5.70
2023-02-16T03:03:32.381Z,5.60
2023-02-16T03:06:09.806Z,5.60
2023-02-16T03:08:43.380Z,5.60
2023-02-16T03:11:34.056Z,5.60
2023-02-16T03:14:15.822Z,5.70
2023-02-16T03:16:49.606Z,5.70
2023-02-16T03:19:37.524Z,5.70
2023-02-16T03:22:23.796Z,5.70
2023-02-16T03:25:09.380Z,5.80
2023-02-16T03:28:00.374Z,5.80
2023-02-16T03:30:29.857Z,5.80
2023-02-16T03:32:56.911Z,5.80
2023-02-16T03:35:25.503Z,5.80
2023-02-16T03:37:52.523Z,5.90
2023-02-16T03:40:30.023Z,5.90
2023-02-16T03:43:03.708Z,6.00
2023-02-16T03:45:35.023Z,6.00
2023-02-16T03:48:02.607Z,6.10
2023-02-16T03:50:30.098Z,6.20
2023-02-16T03:53:06.657Z,6.20
2023-02-16T03:55:42.895Z,6.20
2023-02-16T03:58:13.605Z,6.30
2023-02-16T04:00:41.570Z,6.30
2023-02-16T04:03:09.111Z,6.30
2023-02-16T04:05:36.174Z,6.40
2023-02-16T04:08:03.991Z,6.40
2023-02-16T04:10:31.016Z,6.40
2023-02-16T04:12:58.215Z,6.40
2023-02-16T04:15:37.086Z,6.30
2023-02-16T04:18:04.836Z,6.30
2023-02-16T04:20:34.377Z,6.30
2023-02-16T04:23:02.782Z,6.20
2023-02-16T04:25:30.474Z,6.20
2023-02-16T04:27:58.275Z,6.10
2023-02-16T04:30:30.566Z,6.00
2023-02-16T04:32:59.310Z,6.00
2023-02-16T04:35:26.222Z,6.00
2023-02-16T04:37:53.303Z,5.90
2023-02-16T04:40:20.558Z,5.90
2023-02-16T04:42:47.873Z,5.90
2023-02-16T04:45:15.116Z,5.80
2023-02-16T04:47:42.198Z,5.80
2023-02-16T04:50:10.247Z,5.80
2023-02-16T04:52:38.226Z,5.80
2023-02-16T04:55:08.768Z,5.70
2023-02-16T04:57:35.708Z,5.70
2023-02-16T05:00:02.772Z,5.70
2023-02-16T05:02:29.687Z,5.70
2023-02-16T05:04:56.588Z,5.70
2023-02-16T05:07:23.508Z,5.60
2023-02-16T05:09:51.148Z,5.70
2023-02-16T05:12:36.539Z,5.60
2023-02-16T05:15:04.742Z,5.60
2023-02-16T05:17:31.764Z,5.50
2023-02-16T05:20:01.759Z,5.50
2023-02-16T05:22:32.351Z,5.50
2023-02-16T05:24:59.328Z,5.40
2023-02-16T05:27:29.612Z,5.40
2023-02-16T05:29:56.662Z,5.40
2023-02-16T05:32:24.140Z,5.40
2023-02-16T05:34:51.192Z,5.40
2023-02-16T05:37:18.844Z,5.40
2023-02-16T05:39:46.181Z,5.40
2023-02-16T05:42:13.189Z,5.40
2023-02-16T05:44:40.190Z,5.40
2023-02-16T05:47:07.130Z,5.40
2023-02-16T05:49:34.140Z,5.50
2023-02-16T05:52:01.158Z,5.40
2023-02-16T05:54:28.396Z,5.40
2023-02-16T05:56:55.759Z,5.40
2023-02-16T05:59:23.135Z,5.40
2023-02-16T06:01:52.193Z,5.50
2023-02-16T06:04:21.049Z,5.50
2023-02-16T06:06:48.526Z,5.50
2023-02-16T06:09:16.039Z,5.50
2023-02-16T06:11:43.506Z,5.50
2023-02-16T06:14:17.339Z,5.50
2023-02-16T06:16:47.584Z,5.50
2023-02-16T06:19:16.865Z,5.50
2023-02-16T06:21:44.102Z,5.50
2023-02-16T06:24:13.183Z,5.60
2023-02-16T06:26:40.600Z,5.60
2023-02-16T06:29:08.472Z,5.70
2023-02-16T06:31:36.715Z,5.70
2023-02-16T06:34:04.859Z,5.80
2023-02-16T06:36:32.715Z,5.70
2023-02-16T06:39:00.064Z,5.70
2023-02-16T06:41:39.944Z,5.80
2023-02-16T06:44:12.647Z,5.70
2023-02-16T06:46:41.802Z,5.80
2023-02-16T06:49:13.753Z,5.80
2023-02-16T06:51:41.306Z,5.80
2023-02-16T06:54:08.198Z,5.80
2023-02-16T06:56:37.606Z,5.80
2023-02-16T06:59:05.820Z,5.80
2023-02-16T07:01:32.928Z,5.80
2023-02-16T07:03:59.978Z,5.80
2023-02-16T07:06:29.175Z,5.90
2023-02-16T07:08:56.615Z,5.90
2023-02-16T07:11:23.716Z,6.00
2023-02-16T07:13:51.459Z,6.00
2023-02-16T07:16:18.567Z,6.00
2023-02-16T07:18:46.482Z,6.00
2023-02-16T07:21:14.305Z,6.00
2023-02-16T07:23:41.525Z,6.10
2023-02-16T07:26:08.694Z,6.10
2023-02-16T07:28:35.838Z,6.10
2023-02-16T07:31:10.179Z,6.10
2023-02-16T07:33:38.091Z,6.10
2023-02-16T07:36:07.023Z,6.10
2023-02-16T07:38:34.691Z,6.10
2023-02-16T07:41:02.689Z,6.10
2023-02-16T07:43:29.701Z,6.20
2023-02-16T07:45:56.861Z,6.20
2023-02-16T07:48:23.876Z,6.20
2023-02-16T07:50:50.899Z,6.20
2023-02-16T07:53:18.131Z,6.30
2023-02-16T07:55:46.812Z,6.30
2023-02-16T07:58:27.151Z,6.40
2023-02-16T08:01:09.790Z,6.40
2023-02-16T08:03:37.092Z,6.40
2023-02-16T08:06:05.627Z,6.60
2023-02-16T08:08:32.943Z,6.60
2023-02-16T08:11:00.071Z,6.70
2023-02-16T08:13:27.083Z,6.70
2023-02-16T08:15:53.977Z,6.80
2023-02-16T08:18:20.790Z,6.80
2023-02-16T08:21:03.210Z,6.80
2023-02-16T08:23:30.676Z,6.80
2023-02-16T08:25:58.969Z,6.90
2023-02-16T08:28:28.543Z,6.90
2023-02-16T08:30:56.107Z,6.90
2023-02-16T08:33:23.130Z,6.90
2023-02-16T08:35:50.253Z,6.90
2023-02-16T08:38:17.243Z,6.90
2023-02-16T08:40:51.517Z,7.00
2023-02-16T08:43:18.449Z,7.10
2023-02-16T08:45:49.299Z,7.10
2023-02-16T08:48:17.828Z,7.10
2023-02-16T08:50:47.124Z,7.20
2023-02-16T08:53:15.417Z,7.20
2023-02-16T08:55:42.666Z,7.30
2023-02-16T08:58:09.521Z,7.40
2023-02-16T09:00:37.728Z,7.60
2023-02-16T09:03:43.035Z,7.90
2023-02-16T09:06:13.406Z,8.00
2023-02-16T09:08:41.892Z,8.10
2023-02-16T09:11:16.140Z,8.10
2023-02-16T09:13:43.323Z,8.20
2023-02-16T09:20:14.157Z,8.30
2023-02-16T09:25:13.373Z,8.80
2023-02-16T09:27:40.184Z,8.90
2023-02-16T09:30:09.465Z,9.00
2023-02-16T09:32:36.876Z,8.90
2023-02-16T09:35:05.049Z,8.80
2023-02-16T09:37:33.352Z,8.80
2023-02-16T09:40:00.522Z,8.70
2023-02-16T09:42:59.405Z,8.70
2023-02-16T09:45:27.024Z,8.70
2023-02-16T09:47:55.145Z,8.60
2023-02-16T09:50:52.698Z,8.60
2023-02-16T09:53:41.163Z,8.60
2023-02-16T09:56:29.287Z,8.70
2023-02-16T09:59:24.533Z,8.70
2023-02-16T10:02:30.805Z,8.60
2023-02-16T10:05:17.139Z,8.60
2023-02-16T10:08:14.950Z,8.60
2023-02-16T10:11:02.853Z,8.60
2023-02-16T10:13:54.173Z,8.60
2023-02-16T10:16:30.358Z,8.60
2023-02-16T10:19:03.965Z,8.60
2023-02-16T10:21:32.132Z,8.70
2023-02-16T10:24:05.586Z,8.70
2023-02-16T10:26:54.840Z,8.80
2023-02-16T10:29:23.210Z,8.80
2023-02-16T10:32:18.709Z,8.80
2023-02-16T10:35:17.444Z,8.90
2023-02-16T10:37:57.405Z,8.90
2023-02-16T10:40:59.325Z,9.00
2023-02-16T10:43:42.298Z,9.10
2023-02-16T10:46:16.860Z,9.20
2023-02-16T10:48:46.477Z,9.30
2023-02-16T10:51:18.056Z,9.30
2023-02-16T10:54:01.295Z,9.40
2023-02-16T10:56:40.292Z,9.50
2023-02-16T10:59:21.856Z,9.50
2023-02-16T11:02:00.593Z,9.50
2023-02-16T11:04:43.655Z,9.50
2023-02-16T11:07:22.116Z,9.50
2023-02-16T11:09:53.945Z,9.60
2023-02-16T11:12:29.179Z,9.60
2023-02-16T11:15:19.792Z,9.60
2023-02-16T11:18:21.814Z,9.70
2023-02-16T11:20:54.637Z,9.60
2023-02-16T11:23:42.129Z,9.60
2023-02-16T11:26:11.851Z,9.60
2023-02-16T11:28:48.328Z,9.60
2023-02-16T11:31:40.650Z,9.50
2023-02-16T11:34:10.661Z,9.50
2023-02-16T11:36:45.110Z,9.50
2023-02-16T11:39:23.843Z,9.40
2023-02-16T11:42:02.489Z,9.40
2023-02-16T11:44:44.464Z,9.40
2023-02-16T11:47:37.639Z,9.40
2023-02-16T11:50:28.405Z,9.40
2023-02-16T11:53:20.254Z,9.40
2023-02-16T11:55:49.604Z,9.40
2023-02-16T11:58:16.548Z,9.40
2023-02-16T12:00:57.665Z,9.40
2023-02-16T12:04:08.095Z,9.40
2023-02-16T12:06:55.178Z,9.50
2023-02-16T12:09:43.180Z,9.50
2023-02-16T12:12:15.257Z,9.60
2023-02-16T12:15:25.994Z,9.60
2023-02-16T12:18:04.740Z,9.60
2023-02-16T12:20:56.055Z,9.60
2023-02-16T12:24:09.771Z,9.60
2023-02-16T12:27:00.851Z,9.60
2023-02-16T12:29:44.841Z,9.70
2023-02-16T12:32:42.187Z,9.70
2023-02-16T12:35:39.858Z,9.70
2023-02-16T12:38:18.738Z,9.80
2023-02-16T12:41:21.800Z,9.80
2023-02-16T12:43:53.908Z,9.80
2023-02-16T12:46:42.759Z,9.90
2023-02-16T12:49:51.444Z,9.90
2023-02-16T12:53:18.620Z,9.90
2023-02-16T12:55:59.788Z,9.90
2023-02-16T12:58:42.412Z,9.90
2023-02-16T13:01:21.733Z,10.00
2023-02-16T13:04:36.240Z,10.00
2023-02-16T13:07:32.619Z,10.00
2023-02-16T13:10:26.075Z,10.00
2023-02-16T13:13:15.204Z,10.00
2023-02-16T13:16:27.693Z,10.00
2023-02-16T13:18:57.114Z,10.00
2023-02-16T13:21:52.157Z,10.00
2023-02-16T13:24:49.895Z,10.00
2023-02-16T13:27:43.404Z,10.00
2023-02-16T13:30:54.065Z,10.00
2023-02-16T13:33:51.008Z,10.00
2023-02-16T13:36:27.318Z,10.00
2023-02-16T13:39:29.861Z,10.10
2023-02-16T13:42:32.846Z,10.10
2023-02-16T13:45:04.977Z,10.00
2023-02-16T13:47:41.387Z,10.00
2023-02-16T13:50:24.873Z,10.00
2023-02-16T13:52:55.708Z,10.00
2023-02-16T13:55:39.201Z,9.90
2023-02-16T13:58:16.053Z,9.90
2023-02-16T14:00:50.611Z,9.90
2023-02-16T14:03:21.050Z,9.80
2023-02-16T14:05:53.927Z,9.80
2023-02-16T14:08:27.534Z,9.80
2023-02-16T14:10:55.160Z,9.80
2023-02-16T14:13:34.242Z,9.80
2023-02-16T14:16:22.350Z,10.00
2023-02-16T14:19:01.447Z,10.10
2023-02-16T14:21:42.809Z,10.20
2023-02-16T14:24:29.809Z,10.40
2023-02-16T14:27:06.013Z,10.70
2023-02-16T14:29:42.588Z,11.00
2023-02-16T14:32:32.130Z,11.40
2023-02-16T14:35:13.687Z,11.60
2023-02-16T14:37:54.241Z,11.80
2023-02-16T14:40:35.159Z,12.00
2023-02-16T14:43:30.460Z,12.10
2023-02-16T14:46:41.111Z,12.20
2023-02-16T14:50:03.618Z,12.10
2023-02-16T14:53:11.710Z,12.00
2023-02-16T14:56:25.902Z,12.00
2023-02-16T14:59:22.394Z,11.80
2023-02-16T15:01:49.522Z,11.70
2023-02-16T15:04:32.919Z,11.60
2023-02-16T15:07:05.486Z,11.60
2023-02-16T15:09:35.700Z,11.80
2023-02-16T15:12:23.572Z,11.90
2023-02-16T15:14:59.170Z,12.10
2023-02-16T15:17:35.526Z,12.20
2023-02-16T15:20:07.337Z,12.40
2023-02-16T15:22:34.279Z,12.40
2023-02-16T15:25:24.515Z,12.40
2023-02-16T15:28:01.101Z,12.20
2023-02-16T15:30:32.125Z,12.20
2023-02-16T15:33:33.191Z,12.10
2023-02-16T15:36:13.261Z,12.10
2023-02-16T15:38:55.089Z,12.00
2023-02-16T15:41:48.435Z,12.00
2023-02-16T15:44:39.097Z,12.00
2023-02-16T15:47:20.641Z,11.90
2023-02-16T15:49:47.648Z,11.90
2023-02-16T15:52:37.830Z,11.80
2023-02-16T15:55:09.098Z,11.70
2023-02-16T15:57:40.956Z,11.60
2023-02-16T16:00:23.141Z,11.60
2023-02-16T16:02:54.457Z,11.50
2023-02-16T16:05:29.129Z,11.50
2023-02-16T16:07:58.668Z,11.50
2023-02-16T16:10:32.521Z,11.40
2023-02-16T16:13:12.834Z,11.40
2023-02-16T16:15:48.413Z,11.40
2023-02-16T16:18:43.943Z,11.40
2023-02-16T16:21:46.520Z,11.30
2023-02-16T16:24:18.640Z,11.40
2023-02-16T16:26:58.745Z,11.30
2023-02-16T16:29:47.476Z,11.40
2023-02-16T16:32:28.810Z,11.40
2023-02-16T16:34:56.846Z,11.40
2023-02-16T16:37:35.596Z,11.40
2023-02-16T16:40:33.584Z,11.40
2023-02-16T16:43:03.513Z,11.40
2023-02-16T16:45:45.784Z,11.40
2023-02-16T16:48:36.344Z,11.40
2023-02-16T16:51:42.910Z,11.40
2023-02-16T16:54:35.713Z,11.40
2023-02-16T16:57:18.461Z,11.40
2023-02-16T16:59:45.294Z,11.50
2023-02-16T17:02:12.216Z,11.50
2023-02-16T17:04:39.134Z,11.50
2023-02-16T17:07:06.102Z,11.50
2023-02-16T17:09:34.018Z,11.50
2023-02-16T17:12:01.091Z,11.50
2023-02-16T17:14:28.601Z,11.50
2023-02-16T17:16:56.226Z,11.60
2023-02-16T17:19:23.388Z,11.60
2023-02-16T17:21:50.732Z,11.60
2023-02-16T17:24:17.848Z,11.60
2023-02-16T17:26:44.735Z,11.60
2023-02-16T17:29:11.660Z,11.60
2023-02-16T17:31:38.633Z,11.60
2023-02-16T17:34:05.572Z,11.60
2023-02-16T17:36:32.656Z,11.60
2023-02-16T17:38:59.648Z,11.60
2023-02-16T17:41:29.446Z,11.60
2023-02-16T17:43:56.539Z,11.60
2023-02-16T17:46:29.808Z,11.70
2023-02-16T17:48:57.496Z,11.70
2023-02-16T17:51:25.949Z,11.70
2023-02-16T17:53:53.414Z,11.60
2023-02-16T17:56:24.355Z,11.60
2023-02-16T17:58:51.774Z,11.60
2023-02-16T18:01:20.557Z,11.70
2023-02-16T18:03:47.946Z,11.70
2023-02-16T18:06:24.848Z,11.80
2023-02-16T18:08:53.269Z,11.90
2023-02-16T18:11:20.539Z,11.90
2023-02-16T18:13:47.743Z,11.90
2023-02-16T18:16:18.882Z,12.00
2023-02-16T18:18:46.212Z,11.90
2023-02-16T18:21:13.645Z,12.00
2023-02-16T18:23:40.785Z,12.00
2023-02-16T18:26:07.910Z,12.00
2023-02-16T18:28:35.431Z,11.90
2023-02-16T18:31:07.034Z,11.90
2023-02-16T18:33:34.812Z,11.80
2023-02-16T18:36:02.114Z,11.80
2023-02-16T18:38:29.176Z,11.80
2023-02-16T18:40:56.192Z,11.80
2023-02-16T18:43:24.017Z,11.80
2023-02-16T18:45:51.320Z,11.70
2023-02-16T18:48:18.544Z,11.70
2023-02-16T18:50:45.521Z,11.70
2023-02-16T18:53:12.726Z,11.70
2023-02-16T18:55:39.782Z,11.70
2023-02-16T18:58:08.493Z,11.60
2023-02-16T19:00:37.076Z,11.60
2023-02-16T19:03:04.871Z,11.60
2023-02-16T19:05:32.649Z,11.60
2023-02-16T19:07:59.678Z,11.60
2023-02-16T19:10:26.974Z,11.60
2023-02-16T19:12:53.915Z,11.60
2023-02-16T19:15:21.274Z,11.50
2023-02-16T19:17:48.666Z,11.50
2023-02-16T19:20:18.235Z,11.40
2023-02-16T19:22:46.596Z,11.40
2023-02-16T19:25:15.245Z,11.30
2023-02-16T19:27:43.712Z,11.30
2023-02-16T19:30:12.069Z,11.20
2023-02-16T19:32:41.107Z,11.20
2023-02-16T19:35:10.542Z,11.20
2023-02-16T19:37:37.678Z,11.20
2023-02-16T19:40:08.593Z,11.30
2023-02-16T19:42:37.010Z,11.20
2023-02-16T19:45:04.838Z,11.30
2023-02-16T19:47:31.855Z,11.20
2023-02-16T19:49:58.959Z,11.30
2023-02-16T19:52:26.077Z,11.20
2023-02-16T19:54:53.141Z,11.20
2023-02-16T19:57:21.208Z,11.20
2023-02-16T19:59:48.309Z,11.20
2023-02-16T20:02:15.639Z,11.30
2023-02-16T20:04:44.660Z,11.20
2023-02-16T20:07:11.999Z,11.20
2023-02-16T20:09:40.986Z,11.30
2023-02-16T20:12:08.093Z,11.20
2023-02-16T20:14:35.133Z,11.20
2023-02-16T20:17:02.340Z,11.20
2023-02-16T20:19:29.268Z,11.20
2023-02-16T20:21:56.750Z,11.10
2023-02-16T20:24:23.802Z,11.00
2023-02-16T20:26:51.962Z,11.00
2023-02-16T20:29:20.682Z,11.00
2023-02-16T20:31:55.768Z,11.10
2023-02-16T20:34:25.987Z,11.00
2023-02-16T20:36:54.483Z,11.00
2023-02-16T20:39:21.922Z,11.00
2023-02-16T20:41:49.010Z,11.00
2023-02-16T20:44:16.593Z,11.00
2023-02-16T20:46:43.946Z,11.00
2023-02-16T20:49:14.530Z,10.90
2023-02-16T20:51:41.610Z,11.00
2023-02-16T20:54:10.728Z,11.00
2023-02-16T20:56:37.777Z,10.90
2023-02-16T20:59:05.403Z,10.90
2023-02-16T21:01:46.608Z,10.90
2023-02-16T21:04:18.511Z,11.00
2023-02-16T21:06:46.535Z,11.00
2023-02-16T21:09:14.391Z,11.10
2023-02-16T21:11:42.251Z,11.00
2023-02-16T21:14:12.176Z,11.10
2023-02-16T21:16:40.993Z,11.10
2023-02-16T21:19:20.990Z,11.10
2023-02-16T21:21:50.148Z,11.00
2023-02-16T21:24:17.128Z,11.10
2023-02-16T21:26:44.131Z,11.00
2023-02-16T21:29:11.331Z,11.10
2023-02-16T21:31:38.512Z,11.10
2023-02-16T21:34:05.549Z,11.00
2023-02-16T21:36:32.571Z,11.00
2023-02-16T21:39:02.986Z,11.10
2023-02-16T21:41:30.617Z,11.10
2023-02-16T21:44:04.006Z,11.10
2023-02-16T21:46:38.273Z,11.10
2023-02-16T21:49:08.746Z,11.10
2023-02-16T21:51:39.042Z,11.10
2023-02-16T21:54:10.969Z,11.10
2023-02-16T21:56:50.135Z,11.00
2023-02-16T21:59:19.723Z,11.10
2023-02-16T22:01:53.524Z,11.00
2023-02-16T22:04:22.690Z,11.00
2023-02-16T22:06:51.179Z,11.00
2023-02-16T22:09:21.924Z,11.00
2023-02-16T22:11:50.940Z,11.00
2023-02-16T22:14:19.061Z,11.00
2023-02-16T22:16:48.374Z,11.00
2023-02-16T22:19:18.985Z,11.10
2023-02-16T22:21:48.374Z,11.10
2023-02-16T22:24:18.591Z,11.10
2023-02-16T22:26:48.589Z,11.10
2023-02-16T22:29:16.783Z,11.10
2023-02-16T22:31:49.197Z,11.10
2023-02-16T22:34:19.973Z,11.10
2023-02-16T22:36:47.322Z,11.10
2023-02-16T22:39:15.555Z,11.20
2023-02-16T22:41:42.988Z,11.20
2023-02-16T22:44:12.138Z,11.20
2023-02-16T22:46:44.680Z,11.20
2023-02-16T22:49:11.805Z,11.20
2023-02-16T22:51:39.157Z,11.20
2023-02-16T22:54:06.963Z,11.20
2023-02-16T22:56:35.040Z,11.20
2023-02-16T22:59:02.054Z,11.20
2023-02-16T23:01:31.335Z,11.20
2023-02-16T23:04:01.121Z,11.20
2023-02-16T23:06:37.665Z,11.20
2023-02-16T23:09:09.231Z,11.20
2023-02-16T23:11:36.744Z,11.20
2023-02-16T23:14:05.684Z,11.20
2023-02-16T23:16:32.971Z,11.20
2023-02-16T23:19:00.865Z,11.20
2023-02-16T23:21:32.910Z,11.20
2023-02-16T23:24:01.699Z,11.20
2023-02-16T23:26:30.801Z,11.20
2023-02-16T23:29:02.321Z,11.20
2023-02-16T23:31:35.152Z,11.20
2023-02-16T23:34:04.156Z,11.20
2023-02-16T23:36:34.524Z,11.30
2023-02-16T23:39:04.109Z,11.30
2023-02-16T23:41:31.093Z,11.30
2023-02-16T23:44:00.036Z,11.30
2023-02-16T23:46:28.370Z,11.30
2023-02-16T23:48:55.564Z,11.30
2023-02-16T23:51:23.063Z,11.20
2023-02-16T23:53:50.096Z,11.20
2023-02-16T23:56:27.589Z,11.20
2023-02-16T23:59:01.512Z,11.20
